»·PEaware :: LXJ223 KAMA-KCOS

LXJ223 :: KAMA-KCOS

FLIGHT INFORMATION

Flight Status: Arrived
Operator: Unknown
More flights by this operator :: More flights under this callsign
Pilot: Anonymous 5456 (5456)
Aircraft: BOMBARDIER BD-100 CHALLENGER 300
(CL30)
More flights by this aircraft type
Origin: KAMA Amarillo Intl
United States
Destination: KCOS City Of Colorado Springs Mun
United States
More flights between these airports :: More routes between these airports
Route: +PNH J17 PUB
File this flight plan on PilotEdge
Remarks:
Altitude:
(Current/Filed)
34,000ft
Speed:
(Current/Filed)
450kts
Departed: 11-Nov-17 09:46 PM
Arrived: 11-Nov-17 10:32 PM
Distance/Time
Traveled:
259nm/0:46
Distance/Time
To Go:
Arrived

Flight Plot

Page will automatically refresh every two minutes.

Flight plan parsing failed; only flown route is shown


Map Options




Map Legend


Flown Route
Filed Route
Departure Airport
Arrival Airport
Navaid (VOR, NDB)
Fix

Horizontal Profiles

Position Reports

Time Latitude Longitude Heading Altitude Ground
Speed
11-Nov-17 21:32 35.217638 -101.709137 225 3613ft 0kts
11-Nov-17 21:33 35.217638 -101.709137 225 3613ft 0kts
11-Nov-17 21:34 35.217638 -101.709137 225 3613ft 0kts
11-Nov-17 21:35 35.217638 -101.709137 225 3613ft 0kts
11-Nov-17 21:36 35.217638 -101.709137 225 3613ft 0kts
11-Nov-17 21:37 35.217638 -101.709137 225 3613ft 0kts
11-Nov-17 21:38 35.217638 -101.709137 225 3613ft 0kts
11-Nov-17 21:39 35.217638 -101.709137 225 3613ft 0kts
11-Nov-17 21:40 35.217638 -101.709137 225 3613ft 0kts
11-Nov-17 21:41 35.217638 -101.709137 225 3613ft 0kts
11-Nov-17 21:42 35.217638 -101.709137 225 3613ft 0kts
11-Nov-17 21:43 35.217638 -101.709137 225 3613ft 0kts
11-Nov-17 21:44 35.217638 -101.709137 225 3613ft 0kts
11-Nov-17 21:45 35.217880 -101.710500 317 3613ft 13kts
11-Nov-17 21:46 35.216223 -101.713471 226 3612ft 14kts
11-Nov-17 21:47 35.213276 -101.717152 226 3612ft 11kts
11-Nov-17 21:48 35.209812 -101.721529 225 3613ft 17kts
11-Nov-17 21:49 35.205763 -101.726618 225 3613ft 9kts
11-Nov-17 21:50 35.203537 -101.730574 307 3613ft 15kts
11-Nov-17 21:51 35.207458 -101.729774 45 3613ft 70kts
11-Nov-17 21:52 35.236521 -101.690205 45 6468ft 197kts
11-Nov-17 21:53 35.286474 -101.671616 312 10158ft 250kts
11-Nov-17 21:54 35.319347 -101.752565 314 13850ft 285kts
11-Nov-17 21:55 35.378204 -101.820576 315 16993ft 326kts
11-Nov-17 21:56 35.452807 -101.894984 318 19892ft 356kts
11-Nov-17 21:57 35.530594 -101.968034 317 23434ft 352kts
11-Nov-17 21:58 35.607159 -102.038863 317 26801ft 343kts
11-Nov-17 21:59 35.683237 -102.109111 316 30069ft 346kts
11-Nov-17 22:00 35.758534 -102.178832 317 33224ft 339kts
11-Nov-17 22:01 35.836595 -102.251269 317 34213ft 384kts
11-Nov-17 22:02 35.927582 -102.335623 318 34211ft 431kts
11-Nov-17 22:03 36.021197 -102.422561 318 34217ft 421kts
11-Nov-17 22:04 36.111674 -102.506986 318 34230ft 415kts
11-Nov-17 22:05 36.197253 -102.587087 318 34230ft 412kts
11-Nov-17 22:06 36.286305 -102.670704 317 34242ft 409kts
11-Nov-17 22:07 36.376318 -102.755457 317 34241ft 408kts
11-Nov-17 22:08 36.465851 -102.839885 316 34263ft 406kts
11-Nov-17 22:09 36.554870 -102.924344 317 34265ft 406kts
11-Nov-17 22:10 36.644224 -103.009220 317 34263ft 405kts
11-Nov-17 22:11 36.733114 -103.093918 317 34262ft 404kts
11-Nov-17 22:12 36.821282 -103.178198 317 34260ft 404kts
11-Nov-17 22:13 36.909599 -103.262872 317 34259ft 403kts
11-Nov-17 22:14 36.997873 -103.347762 317 34257ft 402kts
11-Nov-17 22:15 37.085318 -103.432158 317 34301ft 403kts
11-Nov-17 22:16 37.169922 -103.513983 317 34314ft 410kts
11-Nov-17 22:17 37.260742 -103.600957 321 34306ft 419kts
11-Nov-17 22:18 37.357675 -103.677994 321 34325ft 423kts
11-Nov-17 22:19 37.456546 -103.756343 321 34321ft 419kts
11-Nov-17 22:20 37.555433 -103.834772 320 32673ft 424kts
11-Nov-17 22:21 37.653513 -103.913034 321 30713ft 422kts
11-Nov-17 22:22 37.751776 -103.991536 321 28720ft 418kts
11-Nov-17 22:23 37.847473 -104.068216 321 26738ft 410kts
11-Nov-17 22:24 37.942068 -104.144253 322 24725ft 400kts
11-Nov-17 22:25 38.033878 -104.218297 322 22708ft 389kts
11-Nov-17 22:26 38.122784 -104.290207 323 20693ft 377kts
11-Nov-17 22:27 38.207769 -104.359129 323 18710ft 364kts
11-Nov-17 22:28 38.291145 -104.425950 330 16686ft 356kts
11-Nov-17 22:29 38.380610 -104.474426 333 14672ft 346kts
11-Nov-17 22:30 38.466915 -104.520903 337 12662ft 338kts
11-Nov-17 22:31 38.552365 -104.565939 337 10664ft 328kts
11-Nov-17 22:32 38.624076 -104.632605 322 8652ft 313kts
11-Nov-17 22:33 38.680852 -104.690215 321 7934ft 223kts
11-Nov-17 22:34 38.724613 -104.716537 0 7584ft 148kts
11-Nov-17 22:35 38.756649 -104.716111 0 6957ft 126kts
11-Nov-17 22:36 38.791140 -104.716041 0 6312ft 119kts
11-Nov-17 22:37 38.812307 -104.715997 333 6207ft 14kts
11-Nov-17 22:38 38.812452 -104.719438 219 6206ft 13kts
11-Nov-17 22:39 38.809656 -104.719931 250 6206ft 7kts
11-Nov-17 22:40 38.809406 -104.720349 178 6207ft 0kts
11-Nov-17 22:41 38.809406 -104.720349 178 6207ft 0kts
11-Nov-17 22:42 38.809406 -104.720349 178 6207ft 0kts

Navigation Log

Ident Type
Flight plan parsing failed, navigation log unavailable